createdAt,value
2023-07-19T00:00:10.362Z,53.60
2023-07-19T00:05:24.982Z,55.25
2023-07-19T00:10:30.545Z,55.52
2023-07-19T00:15:35.063Z,53.98
2023-07-19T00:20:40.519Z,55.97
2023-07-19T00:25:46.813Z,56.14
2023-07-19T00:30:51.852Z,56.17
2023-07-19T00:35:57.731Z,57.04
2023-07-19T00:41:02.153Z,56.27
2023-07-19T00:46:10.143Z,57.20
2023-07-19T00:51:21.200Z,57.98
2023-07-19T00:56:26.289Z,57.49
2023-07-19T01:01:30.745Z,58.88
2023-07-19T01:06:39.485Z,59.24
2023-07-19T01:11:43.640Z,59.81
2023-07-19T01:16:48.311Z,59.42
2023-07-19T01:21:58.012Z,59.71
2023-07-19T01:27:20.624Z,60.01
2023-07-19T01:32:27.138Z,60.16
2023-07-19T01:37:31.345Z,59.92
2023-07-19T01:42:36.966Z,60.22
2023-07-19T01:47:41.220Z,59.92
2023-07-19T01:52:45.329Z,59.82
2023-07-19T01:57:51.145Z,61.08
2023-07-19T02:02:55.412Z,61.20
2023-07-19T02:07:59.654Z,60.94
2023-07-19T02:13:05.434Z,60.87
2023-07-19T02:18:10.130Z,61.38
2023-07-19T02:23:15.554Z,62.01
2023-07-19T02:28:21.547Z,62.41
2023-07-19T02:33:25.728Z,62.05
2023-07-19T02:38:30.407Z,61.98
2023-07-19T02:43:36.057Z,62.57
2023-07-19T02:48:40.847Z,62.67
2023-07-19T02:53:44.990Z,62.34
2023-07-19T02:58:50.705Z,62.37
2023-07-19T03:03:55.119Z,61.86
2023-07-19T03:08:59.544Z,63.14
2023-07-19T03:14:05.447Z,63.10
2023-07-19T03:19:13.844Z,63.12
2023-07-19T03:24:18.901Z,63.61
2023-07-19T03:29:27.018Z,62.94
2023-07-19T03:34:31.219Z,62.70
2023-07-19T03:39:36.487Z,65.65
2023-07-19T03:44:42.474Z,64.99
2023-07-19T03:49:47.068Z,64.11
2023-07-19T03:54:52.552Z,63.79
2023-07-19T04:00:05.110Z,64.02
2023-07-19T04:05:21.293Z,64.10
2023-07-19T04:10:26.268Z,63.78
2023-07-19T04:15:31.757Z,63.40
2023-07-19T04:20:37.957Z,63.54
2023-07-19T04:25:42.443Z,62.83
2023-07-19T04:30:51.596Z,62.65
2023-07-19T04:35:57.776Z,62.48
2023-07-19T04:41:05.005Z,62.06
2023-07-19T04:46:12.224Z,61.66
2023-07-19T04:51:17.956Z,60.88
2023-07-19T04:56:22.848Z,60.74
2023-07-19T05:01:29.022Z,60.34
2023-07-19T05:06:33.864Z,61.18
2023-07-19T05:11:38.393Z,61.33
2023-07-19T05:16:44.109Z,60.65
2023-07-19T05:21:48.353Z,60.32
2023-07-19T05:26:53.522Z,59.83
2023-07-19T05:31:59.218Z,59.48
2023-07-19T05:37:05.076Z,59.55
2023-07-19T05:42:10.902Z,59.26
2023-07-19T05:47:17.318Z,58.37
2023-07-19T05:52:21.500Z,57.21
2023-07-19T05:57:26.573Z,58.11
2023-07-19T06:02:47.468Z,58.14
2023-07-19T06:08:09.982Z,57.86
2023-07-19T06:13:23.475Z,57.72
2023-07-19T06:18:29.223Z,57.10
2023-07-19T06:23:33.457Z,56.83
2023-07-19T06:28:37.804Z,54.36
2023-07-19T06:33:43.462Z,53.33
2023-07-19T06:38:48.840Z,52.97
2023-07-19T06:43:56.027Z,52.45
2023-07-19T06:49:01.941Z,52.66
2023-07-19T06:54:15.010Z,51.58
2023-07-19T06:59:20.190Z,50.20
2023-07-19T07:04:26.356Z,49.46
2023-07-19T07:09:31.038Z,50.41
2023-07-19T07:14:35.718Z,51.34
2023-07-19T07:19:45.551Z,50.75
2023-07-19T07:24:49.986Z,51.02
2023-07-19T07:29:54.270Z,48.90
2023-07-19T07:35:00.216Z,48.98
2023-07-19T07:40:06.266Z,48.87
2023-07-19T07:45:11.423Z,47.63
2023-07-19T07:50:21.519Z,44.99
2023-07-19T07:55:26.538Z,46.26
2023-07-19T08:00:30.906Z,45.27
2023-07-19T08:05:36.578Z,46.71
2023-07-19T08:10:41.324Z,45.16
2023-07-19T08:15:45.414Z,44.19
2023-07-19T08:20:52.164Z,44.53
2023-07-19T08:26:00.183Z,44.08
2023-07-19T08:31:06.433Z,43.02
2023-07-19T08:36:12.860Z,41.96
2023-07-19T08:41:23.730Z,39.34
2023-07-19T08:46:29.644Z,39.06
2023-07-19T08:51:36.602Z,37.69
2023-07-19T08:56:41.050Z,35.61
2023-07-19T09:01:47.677Z,33.17
2023-07-19T09:06:53.216Z,33.99
2023-07-19T09:11:58.609Z,31.23
2023-07-19T09:17:06.541Z,28.10
2023-07-19T09:22:12.544Z,30.07
2023-07-19T09:27:25.948Z,29.37
2023-07-19T09:32:30.577Z,28.22
2023-07-19T09:37:38.028Z,28.78
2023-07-19T09:42:44.123Z,28.75
2023-07-19T09:47:48.461Z,29.24
2023-07-19T09:52:55.704Z,27.83
2023-07-19T09:58:01.677Z,28.15
2023-07-19T10:03:08.824Z,28.80
2023-07-19T10:08:14.359Z,28.19
2023-07-19T10:13:19.602Z,27.95
2023-07-19T10:18:25.951Z,28.91
2023-07-19T10:23:37.879Z,30.21
2023-07-19T10:28:43.742Z,28.81
2023-07-19T10:33:51.135Z,27.38
2023-07-19T10:38:57.263Z,24.57
2023-07-19T10:44:07.593Z,26.63
2023-07-19T10:49:11.930Z,27.70
2023-07-19T10:54:19.211Z,27.65
2023-07-19T10:59:24.675Z,27.97
2023-07-19T11:04:31.540Z,27.98
2023-07-19T11:09:37.581Z,28.43
2023-07-19T11:14:45.682Z,29.26
2023-07-19T11:19:50.665Z,28.94
2023-07-19T11:24:57.747Z,29.94
2023-07-19T11:30:03.453Z,28.83
2023-07-19T11:35:08.686Z,29.71
2023-07-19T11:40:17.784Z,28.88
2023-07-19T11:45:25.804Z,29.00
2023-07-19T11:50:31.277Z,28.40
2023-07-19T11:55:45.684Z,29.17
2023-07-19T12:00:53.837Z,27.97
2023-07-19T12:06:07.650Z,27.88
2023-07-19T12:11:30.994Z,28.42
2023-07-19T12:16:42.377Z,29.12
2023-07-19T12:21:51.277Z,28.83
2023-07-19T12:27:00.796Z,28.02
2023-07-19T12:32:05.429Z,28.79
2023-07-19T12:37:11.713Z,28.49
2023-07-19T12:42:18.282Z,28.15
2023-07-19T12:47:22.569Z,28.47
2023-07-19T12:52:37.995Z,28.79
2023-07-19T12:57:52.498Z,28.02
2023-07-19T13:02:57.831Z,24.82
2023-07-19T13:08:02.348Z,22.79
2023-07-19T13:13:09.346Z,21.54
2023-07-19T13:18:13.684Z,23.23
2023-07-19T13:23:18.517Z,23.25
2023-07-19T13:28:24.575Z,22.51
2023-07-19T13:33:28.892Z,22.16
2023-07-19T13:38:36.447Z,24.51
2023-07-19T13:43:48.238Z,26.08
2023-07-19T13:48:52.678Z,26.69
2023-07-19T13:53:56.818Z,26.11
2023-07-19T13:59:02.959Z,27.39
2023-07-19T14:04:08.110Z,27.42
2023-07-19T14:09:12.817Z,28.07
2023-07-19T14:14:19.086Z,28.26
2023-07-19T14:19:23.358Z,28.70
2023-07-19T14:24:28.576Z,28.91
2023-07-19T14:29:34.417Z,29.16
2023-07-19T14:34:39.839Z,28.60
2023-07-19T14:39:50.924Z,28.26
2023-07-19T14:44:58.484Z,27.81
2023-07-19T14:50:03.219Z,28.00
2023-07-19T14:55:09.015Z,27.92
2023-07-19T15:00:16.754Z,28.32
2023-07-19T15:05:21.431Z,28.28
2023-07-19T15:10:25.781Z,28.24
2023-07-19T15:15:32.349Z,28.31
2023-07-19T15:20:37.500Z,28.38
2023-07-19T15:25:42.024Z,28.02
2023-07-19T15:30:48.181Z,28.47
2023-07-19T15:35:53.716Z,28.48
2023-07-19T15:40:58.296Z,29.47
2023-07-19T15:46:05.027Z,29.37
2023-07-19T15:51:10.024Z,29.01
2023-07-19T15:56:14.138Z,29.51
2023-07-19T16:01:21.071Z,29.74
2023-07-19T16:06:25.779Z,29.49
2023-07-19T16:11:30.376Z,30.21
2023-07-19T16:16:36.698Z,30.26
2023-07-19T16:21:41.001Z,30.75
2023-07-19T16:26:45.571Z,31.67
2023-07-19T16:31:51.577Z,32.25
2023-07-19T16:36:57.138Z,33.33
2023-07-19T16:42:02.551Z,32.56
2023-07-19T16:47:10.317Z,33.37
2023-07-19T16:52:16.254Z,37.82
2023-07-19T16:57:20.487Z,40.13
2023-07-19T17:02:27.221Z,40.61
2023-07-19T17:07:33.938Z,41.77
2023-07-19T17:12:38.865Z,42.05
2023-07-19T17:17:44.587Z,42.03
2023-07-19T17:22:49.142Z,43.09
2023-07-19T17:27:54.144Z,44.42
2023-07-19T17:33:00.403Z,44.92
2023-07-19T17:38:05.193Z,44.92
2023-07-19T17:43:13.105Z,44.57
2023-07-19T17:48:19.265Z,45.34
2023-07-19T17:53:23.546Z,46.82
2023-07-19T17:58:28.131Z,47.50
2023-07-19T18:03:34.680Z,47.92
2023-07-19T18:08:39.124Z,48.83
2023-07-19T18:13:43.349Z,49.73
2023-07-19T18:18:49.194Z,50.45
2023-07-19T18:23:53.859Z,51.54
2023-07-19T18:28:58.685Z,52.41
2023-07-19T18:34:04.570Z,52.57
2023-07-19T18:39:10.359Z,52.98
2023-07-19T18:44:15.044Z,54.20
2023-07-19T18:49:21.410Z,54.17
2023-07-19T18:54:29.647Z,54.59
2023-07-19T18:59:36.170Z,54.63
2023-07-19T19:04:41.917Z,54.37
2023-07-19T19:09:46.239Z,52.76
2023-07-19T19:14:54.574Z,52.44
2023-07-19T19:20:00.399Z,52.28
2023-07-19T19:25:04.862Z,52.27
2023-07-19T19:30:10.394Z,53.48
2023-07-19T19:35:16.697Z,53.65
2023-07-19T19:40:21.496Z,53.64
2023-07-19T19:45:25.640Z,54.46
2023-07-19T19:50:31.410Z,53.45
2023-07-19T20:00:44.180Z,53.90
2023-07-19T20:11:00.215Z,54.48
2023-07-19T20:16:04.439Z,54.97
2023-07-19T20:21:10.302Z,54.19
2023-07-19T20:26:15.454Z,55.09
2023-07-19T20:41:36.647Z,53.80
2023-07-19T20:46:41.123Z,53.93
2023-07-19T20:51:47.252Z,55.58
2023-07-19T20:56:51.325Z,56.58
2023-07-19T21:01:55.665Z,56.92
2023-07-19T21:07:01.307Z,57.66
2023-07-19T21:12:08.725Z,57.66
2023-07-19T21:17:13.090Z,57.87
2023-07-19T21:22:18.879Z,58.24
2023-07-19T21:27:25.503Z,57.68
2023-07-19T21:32:30.458Z,55.22
2023-07-19T21:37:36.110Z,53.42
2023-07-19T21:42:40.378Z,54.46
2023-07-19T21:47:44.932Z,54.88
2023-07-19T21:52:51.659Z,54.17
2023-07-19T21:57:55.898Z,53.39
2023-07-19T22:03:00.229Z,54.37
2023-07-19T22:08:06.159Z,55.45
2023-07-19T22:13:11.272Z,55.88
2023-07-19T22:18:20.051Z,55.92
2023-07-19T22:23:25.943Z,56.37
2023-07-19T22:28:30.554Z,56.35
2023-07-19T22:33:34.843Z,57.21
2023-07-19T22:38:40.721Z,56.37
2023-07-19T22:43:44.946Z,57.45
2023-07-19T22:48:51.743Z,55.99
2023-07-19T22:53:57.294Z,54.52
2023-07-19T22:59:02.131Z,61.91
2023-07-19T23:04:06.606Z,69.21
2023-07-19T23:09:12.139Z,76.55
2023-07-19T23:14:16.664Z,77.04
2023-07-19T23:19:21.193Z,81.96
2023-07-19T23:24:29.322Z,81.21
2023-07-19T23:29:34.588Z,81.44
2023-07-19T23:34:38.936Z,79.31
2023-07-19T23:39:44.489Z,81.50
2023-07-19T23:44:53.444Z,85.01
2023-07-19T23:49:59.551Z,77.23
2023-07-19T23:55:06.345Z,78.01
